Time;durP1;ratioP1;P1;durP2;ratioP2;P2;SDS_P1;SDS_P2;PMS_P1;PMS_P2;Temp;Humidity;BMP_temperature;BMP_pressure;BME280_temperature;BME280_humidity;BME280_pressure;Samples;Min_cycle;Max_cycle;Signal;HPM_P1;HPM_P2
2022/01/10 00:00:45;;;;;;;13.98;3.75;;;27.80;99.90;;;;;;5088592;28;20412;-83
2022/01/10 00:03:12;;;;;;;15.73;4.07;;;27.60;99.90;;;;;;5088809;28;20867;-83
2022/01/10 00:05:40;;;;;;;15.85;3.50;;;27.50;99.90;;;;;;5088689;28;20385;-84
2022/01/10 00:08:08;;;;;;;20.00;3.92;;;27.30;99.90;;;;;;5088723;28;20368;-83
2022/01/10 00:10:35;;;;;;;14.30;3.60;;;27.10;99.90;;;;;;5088461;28;20404;-83
2022/01/10 00:13:03;;;;;;;11.20;3.35;;;27.20;99.90;;;;;;5088477;28;20373;-83
2022/01/10 00:15:30;;;;;;;14.77;3.30;;;27.50;99.90;;;;;;5088614;28;20384;-83
2022/01/10 00:17:57;;;;;;;14.50;3.40;;;27.70;99.90;;;;;;5088258;28;20883;-83
2022/01/10 00:20:24;;;;;;;13.63;3.70;;;27.90;99.90;;;;;;5088435;28;20400;-83
2022/01/10 00:22:51;;;;;;;14.85;3.45;;;28.00;99.90;;;;;;5088292;28;20377;-83
2022/01/10 00:25:21;;;;;;;14.33;3.37;;;28.00;99.90;;;;;;5088435;28;20387;-83
2022/01/10 00:27:52;;;;;;;14.25;3.63;;;27.80;99.90;;;;;;5088258;28;20529;-83
2022/01/10 00:30:21;;;;;;;14.73;3.50;;;27.40;99.90;;;;;;5088060;28;20372;-83
2022/01/10 00:32:48;;;;;;;13.02;3.42;;;27.30;99.90;;;;;;5088016;28;20379;-83
2022/01/10 00:35:16;;;;;;;11.50;3.20;;;27.40;99.90;;;;;;5088210;28;20475;-83
2022/01/10 00:37:43;;;;;;;15.37;3.70;;;27.80;99.90;;;;;;5087740;28;20406;-83
2022/01/10 00:40:13;;;;;;;14.52;3.30;;;28.30;99.90;;;;;;5086446;28;20404;-84
2022/01/10 00:42:41;;;;;;;13.10;3.20;;;28.70;99.90;;;;;;5089213;28;20864;-84
2022/01/10 00:45:29;;;;;;;12.82;3.38;;;29.10;99.90;;;;;;5087386;28;20917;-83
2022/01/10 00:47:59;;;;;;;12.55;3.20;;;29.50;99.90;;;;;;5087372;28;20388;-83
2022/01/10 00:50:33;;;;;;;13.63;3.33;;;30.20;99.90;;;;;;5091627;28;20395;-84
2022/01/10 00:53:01;;;;;;;12.05;3.42;;;30.60;99.90;;;;;;5104292;28;20375;-85
2022/01/10 00:55:29;;;;;;;12.82;3.47;;;30.00;99.90;;;;;;5103566;28;20384;-84
2022/01/10 00:57:57;;;;;;;10.00;2.90;;;30.00;99.90;;;;;;5087719;28;20433;-83
2022/01/10 01:00:24;;;;;;;10.60;2.90;;;30.30;99.90;;;;;;5087469;28;20457;-81
2022/01/10 01:02:51;;;;;;;10.68;2.90;;;30.90;99.50;;;;;;5087525;28;20371;-81
2022/01/10 01:05:21;;;;;;;11.05;2.92;;;31.20;98.60;;;;;;5087608;28;20404;-84
2022/01/10 01:07:48;;;;;;;9.65;2.75;;;31.40;97.70;;;;;;5092112;28;20371;-84
2022/01/10 01:15:55;;;;;;;10.77;2.90;;;31.30;96.50;;;;;;5106320;28;20874;-81
2022/01/10 01:18:55;;;;;;;9.98;3.30;;;31.50;96.80;;;;;;5099257;28;20372;-81
2022/01/10 01:24:06;;;;;;;8.45;2.80;;;30.90;96.40;;;;;;5087165;28;20384;-82
2022/01/10 01:26:38;;;;;;;9.00;2.60;;;31.60;97.50;;;;;;5087165;28;20379;-82
2022/01/10 01:29:09;;;;;;;8.45;2.72;;;32.40;94.50;;;;;;5087065;28;20479;-82
2022/01/10 01:31:36;;;;;;;7.13;2.67;;;32.80;91.90;;;;;;5086904;28;20376;-83
2022/01/10 01:34:04;;;;;;;8.02;2.70;;;32.70;91.20;;;;;;5087043;28;20381;-84
2022/01/10 01:36:32;;;;;;;9.15;2.58;;;33.10;91.10;;;;;;5087157;28;20369;-82
2022/01/10 01:39:04;;;;;;;8.38;2.70;;;33.50;90.10;;;;;;5086910;28;20408;-85
2022/01/10 01:43:59;;;;;;;7.73;2.67;;;33.00;84.30;;;;;;5080294;28;20389;-82
2022/01/10 01:46:27;;;;;;;8.50;2.75;;;32.40;89.00;;;;;;5078934;28;20529;-82
2022/01/10 01:48:56;;;;;;;10.57;2.83;;;32.40;90.10;;;;;;5086824;28;20381;-84
2022/01/10 01:51:23;;;;;;;7.70;2.63;;;32.90;90.20;;;;;;5086684;28;20455;-85
2022/01/10 01:53:52;;;;;;;9.43;2.70;;;33.60;84.80;;;;;;5086805;28;20377;-84
2022/01/10 01:56:20;;;;;;;8.98;2.60;;;33.90;83.40;;;;;;5086887;28;20872;-83
2022/01/10 01:58:48;;;;;;;8.80;2.55;;;34.50;81.10;;;;;;5073498;28;20488;-83
2022/01/10 02:01:16;;;;;;;6.40;2.20;;;35.00;79.10;;;;;;5066359;28;20414;-84
2022/01/10 02:03:44;;;;;;;8.35;2.70;;;35.20;77.30;;;;;;5067577;28;20395;-82
2022/01/10 02:06:11;;;;;;;7.63;2.40;;;35.20;72.30;;;;;;5077229;28;20443;-84
2022/01/10 02:08:39;;;;;;;6.77;2.53;;;34.80;72.40;;;;;;5082935;28;20394;-84
2022/01/10 02:11:08;;;;;;;8.07;2.47;;;33.90;75.30;;;;;;5090699;28;20385;-84
2022/01/10 02:13:36;;;;;;;7.55;2.20;;;33.70;76.80;;;;;;5050701;28;20499;-80
2022/01/10 02:16:05;;;;;;;7.20;2.33;;;33.40;76.40;;;;;;5050563;28;20414;-81
2022/01/10 02:18:34;;;;;;;7.53;2.50;;;32.80;78.70;;;;;;5050594;28;20458;-84
2022/01/10 02:21:05;;;;;;;6.60;2.50;;;32.10;81.80;;;;;;5050189;28;20516;-84
2022/01/10 02:23:33;;;;;;;9.97;2.60;;;31.90;85.30;;;;;;5053685;28;20368;-81
2022/01/10 02:26:00;;;;;;;9.38;2.50;;;31.80;85.30;;;;;;5086370;28;20430;-83
2022/01/10 02:28:28;;;;;;;10.80;2.90;;;31.40;86.40;;;;;;5067921;28;20385;-84
2022/01/10 02:30:57;;;;;;;9.07;2.70;;;30.90;90.00;;;;;;5059261;28;20400;-84
2022/01/10 02:33:28;;;;;;;9.07;2.77;;;30.70;91.40;;;;;;5053659;28;20944;-83
2022/01/10 02:36:24;;;;;;;9.10;2.88;;;30.60;91.80;;;;;;5049991;28;20371;-84
2022/01/10 02:38:53;;;;;;;9.75;2.65;;;30.40;92.70;;;;;;5073453;28;20399;-85
2022/01/10 02:41:25;;;;;;;10.93;2.90;;;30.60;93.20;;;;;;5089533;28;20388;-85
2022/01/10 02:43:54;;;;;;;8.82;2.72;;;30.90;92.80;;;;;;5089518;28;20381;-85
2022/01/10 02:46:21;;;;;;;7.60;2.42;;;31.30;91.80;;;;;;5090104;28;20414;-84
2022/01/10 02:48:48;;;;;;;8.73;2.70;;;31.70;90.50;;;;;;5089365;28;20380;-83
2022/01/10 02:51:16;;;;;;;10.25;2.85;;;32.10;89.60;;;;;;5089944;28;20764;-84
2022/01/10 02:53:43;;;;;;;8.98;3.15;;;32.10;90.00;;;;;;5089066;28;20449;-85
2022/01/10 02:56:10;;;;;;;7.70;2.90;;;32.40;87.30;;;;;;5089037;28;20385;-84
2022/01/10 02:58:38;;;;;;;9.20;3.00;;;32.20;85.80;;;;;;5089000;28;20373;-83
2022/01/10 03:01:05;;;;;;;8.55;2.90;;;32.20;86.90;;;;;;5089107;28;20806;-84
2022/01/10 03:03:32;;;;;;;8.27;2.83;;;32.40;87.40;;;;;;5088068;28;20392;-81
2022/01/10 03:06:00;;;;;;;8.32;2.70;;;32.60;87.60;;;;;;5089362;28;20389;-84
2022/01/10 03:08:30;;;;;;;9.35;2.80;;;33.00;84.80;;;;;;5087533;28;20434;-84
2022/01/10 03:10:57;;;;;;;7.90;2.78;;;33.70;84.70;;;;;;5085132;28;20396;-83
2022/01/10 03:13:24;;;;;;;8.67;2.90;;;34.60;80.70;;;;;;5088391;28;20449;-83
2022/01/10 03:15:51;;;;;;;9.90;3.03;;;36.10;74.20;;;;;;5088892;28;20380;-84
2022/01/10 03:18:18;;;;;;;8.45;2.60;;;37.20;68.40;;;;;;5088066;28;20383;-85
2022/01/10 03:20:45;;;;;;;8.90;2.85;;;37.50;65.10;;;;;;5088812;28;20400;-86
2022/01/10 03:23:13;;;;;;;6.65;2.80;;;37.70;63.50;;;;;;5089051;28;20391;-86
2022/01/10 03:25:40;;;;;;;9.38;2.85;;;38.40;62.20;;;;;;5084237;28;20439;-83
2022/01/10 03:28:07;;;;;;;9.20;3.20;;;39.20;60.90;;;;;;5082238;28;20736;-85
2022/01/10 03:30:35;;;;;;;8.05;3.40;;;39.60;57.80;;;;;;5089045;28;20380;-84
2022/01/10 03:33:03;;;;;;;7.97;3.50;;;38.90;60.80;;;;;;5072471;28;20401;-81
2022/01/10 03:35:32;;;;;;;7.53;3.50;;;38.40;58.10;;;;;;5089157;28;20902;-84
2022/01/10 03:37:59;;;;;;;7.73;3.33;;;37.70;59.90;;;;;;5088401;28;20405;-83
2022/01/10 03:40:26;;;;;;;6.80;3.13;;;37.40;61.70;;;;;;5088789;28;20408;-81
2022/01/10 03:42:53;;;;;;;8.23;3.35;;;37.10;61.60;;;;;;5088877;28;20433;-83
2022/01/10 03:45:20;;;;;;;10.32;3.95;;;36.50;62.30;;;;;;5088613;28;20732;-80
2022/01/10 03:47:47;;;;;;;7.97;3.63;;;35.50;64.60;;;;;;5088759;28;20447;-80
2022/01/10 03:50:14;;;;;;;8.25;3.50;;;34.80;67.50;;;;;;5088649;28;20372;-83
2022/01/10 03:52:42;;;;;;;8.63;3.58;;;34.50;67.50;;;;;;5088223;28;20432;-83
2022/01/10 03:55:10;;;;;;;9.07;3.58;;;34.10;69.30;;;;;;5088751;28;20369;-80
2022/01/10 03:57:37;;;;;;;8.02;3.45;;;33.90;68.80;;;;;;5088344;28;20906;-84
2022/01/10 04:00:07;;;;;;;7.72;3.63;;;34.00;69.20;;;;;;5088094;28;20400;-91
2022/01/10 04:02:35;;;;;;;9.67;3.70;;;33.80;69.10;;;;;;5101964;27;20390;-80
2022/01/10 04:05:03;;;;;;;8.25;3.38;;;33.80;70.90;;;;;;5068295;28;20386;-83
2022/01/10 04:07:30;;;;;;;9.45;3.40;;;33.50;71.10;;;;;;5087349;28;20423;-82
2022/01/10 04:09:57;;;;;;;10.50;3.33;;;33.40;72.80;;;;;;5087870;28;20380;-80
2022/01/10 04:12:25;;;;;;;10.20;3.13;;;33.30;73.40;;;;;;5087340;28;20483;-84
2022/01/10 04:14:52;;;;;;;10.55;3.17;;;33.30;73.50;;;;;;5088400;28;20919;-80
2022/01/10 04:17:19;;;;;;;10.03;3.13;;;33.10;73.80;;;;;;5087789;28;20685;-83
2022/01/10 04:19:46;;;;;;;11.27;3.05;;;33.10;76.10;;;;;;5087957;28;20397;-84
2022/01/10 04:22:13;;;;;;;10.82;3.15;;;33.00;75.80;;;;;;5087590;28;20474;-79
2022/01/10 04:24:39;;;;;;;9.68;2.83;;;32.90;76.40;;;;;;5087447;28;20399;-84
2022/01/10 04:27:07;;;;;;;8.30;2.90;;;32.80;76.90;;;;;;5087621;28;20403;-81
2022/01/10 04:29:33;;;;;;;8.63;2.70;;;32.70;77.90;;;;;;5087651;28;20384;-85
2022/01/10 04:32:01;;;;;;;11.27;3.20;;;32.70;78.90;;;;;;5087769;28;20464;-84
2022/01/10 04:34:28;;;;;;;8.57;2.90;;;32.70;78.60;;;;;;5088204;28;20395;-84
2022/01/10 04:36:54;;;;;;;10.73;3.30;;;32.80;79.10;;;;;;5087409;28;20417;-84
2022/01/10 04:39:22;;;;;;;6.80;2.97;;;33.10;78.80;;;;;;5087719;28;20450;-84
2022/01/10 04:41:49;;;;;;;9.30;3.40;;;33.30;77.90;;;;;;5088191;28;20384;-85
2022/01/10 04:44:16;;;;;;;12.77;3.60;;;33.50;77.60;;;;;;5087644;28;20380;-83
2022/01/10 04:46:42;;;;;;;9.80;3.50;;;33.70;77.10;;;;;;5087975;28;20420;-81
2022/01/10 04:49:17;;;;;;;7.25;3.28;;;33.70;75.70;;;;;;5087781;28;20425;-85
2022/01/10 04:51:44;;;;;;;7.90;3.70;;;33.90;75.80;;;;;;5087585;28;20369;-84
2022/01/10 04:54:11;;;;;;;9.17;3.80;;;34.20;74.00;;;;;;5086353;28;20402;-84
2022/01/10 04:56:38;;;;;;;9.18;3.40;;;34.80;74.30;;;;;;5087698;28;20364;-82
2022/01/10 04:59:05;;;;;;;10.15;3.53;;;35.60;70.20;;;;;;5087223;28;20380;-82
2022/01/10 05:01:32;;;;;;;7.57;3.28;;;36.40;66.60;;;;;;5085865;28;20388;-84
2022/01/10 05:03:59;;;;;;;11.27;3.13;;;37.00;65.10;;;;;;5086897;28;20376;-83
2022/01/10 05:06:26;;;;;;;9.68;3.10;;;36.90;64.10;;;;;;5085097;28;20394;-81
2022/01/10 05:08:53;;;;;;;9.70;3.03;;;36.60;63.70;;;;;;5087384;28;20388;-82
2022/01/10 05:11:20;;;;;;;7.40;2.97;;;36.10;64.70;;;;;;5087549;28;20505;-80
2022/01/10 05:13:48;;;;;;;9.20;2.95;;;35.70;66.30;;;;;;5087139;28;20364;-87
2022/01/10 05:16:16;;;;;;;10.70;3.15;;;35.30;67.60;;;;;;5086335;28;20737;-83
2022/01/10 05:18:43;;;;;;;10.10;3.10;;;35.00;67.90;;;;;;5087203;28;20391;-85
2022/01/10 05:21:12;;;;;;;11.23;3.17;;;34.60;68.70;;;;;;5086410;28;20752;-85
2022/01/10 05:23:39;;;;;;;9.13;3.33;;;34.10;70.90;;;;;;5086312;28;20391;-86
2022/01/10 05:26:06;;;;;;;10.32;3.00;;;33.30;71.80;;;;;;5087073;28;20395;-84
2022/01/10 05:28:33;;;;;;;8.73;3.00;;;33.00;74.10;;;;;;5086869;28;20384;-85
2022/01/10 05:31:01;;;;;;;12.73;3.33;;;32.60;76.90;;;;;;5086168;28;21027;-82
2022/01/10 05:33:31;;;;;;;10.20;2.97;;;32.60;77.80;;;;;;5082584;28;20864;-90
2022/01/10 05:35:58;;;;;;;9.35;3.10;;;32.50;78.30;;;;;;5085734;28;20392;-79
2022/01/10 05:38:25;;;;;;;10.15;3.05;;;32.60;78.00;;;;;;5086876;28;20396;-85
2022/01/10 05:40:52;;;;;;;11.40;3.10;;;33.20;77.40;;;;;;5086854;28;20403;-82
2022/01/10 05:43:19;;;;;;;8.00;3.00;;;33.60;73.40;;;;;;5086506;28;20379;-83
2022/01/10 05:45:46;;;;;;;9.13;3.03;;;33.40;74.10;;;;;;5086876;28;20368;-81
2022/01/10 05:48:24;;;;;;;8.35;2.90;;;33.90;75.90;;;;;;5086794;28;20928;-82
2022/01/10 05:50:52;;;;;;;6.57;2.40;;;34.60;72.20;;;;;;5086280;28;20577;-81
2022/01/10 05:53:20;;;;;;;9.77;2.70;;;34.80;69.40;;;;;;5086677;28;20427;-81
2022/01/10 05:55:48;;;;;;;8.48;2.70;;;34.50;69.20;;;;;;5086952;28;20471;-89
2022/01/10 05:58:17;;;;;;;9.20;2.47;;;34.10;70.20;;;;;;5086970;28;20399;-80
2022/01/10 06:00:44;;;;;;;8.73;2.53;;;33.70;70.90;;;;;;5086789;28;20409;-82
2022/01/10 06:03:11;;;;;;;10.00;2.83;;;33.60;70.70;;;;;;5086471;28;20741;-86
2022/01/10 06:05:39;;;;;;;12.45;2.75;;;33.50;72.30;;;;;;5086724;28;20778;-81
2022/01/10 06:08:08;;;;;;;6.70;2.45;;;33.10;72.90;;;;;;5086504;28;20398;-82
2022/01/10 06:10:36;;;;;;;7.35;2.45;;;32.70;73.30;;;;;;5086405;28;20372;-84
2022/01/10 06:13:03;;;;;;;7.32;2.63;;;32.90;74.40;;;;;;5086341;28;20385;-80
2022/01/10 06:15:30;;;;;;;7.25;2.38;;;33.60;71.30;;;;;;5086479;28;20391;-82
2022/01/10 06:17:57;;;;;;;7.90;2.40;;;34.00;71.20;;;;;;5086420;28;20740;-84
2022/01/10 06:20:24;;;;;;;8.10;2.40;;;34.60;68.80;;;;;;5086144;28;20400;-83
2022/01/10 06:22:52;;;;;;;7.13;2.30;;;35.50;66.60;;;;;;5086662;28;20372;-83
2022/01/10 06:25:23;;;;;;;6.30;2.25;;;36.00;65.60;;;;;;5086008;28;20388;-83
2022/01/10 06:27:50;;;;;;;6.82;2.30;;;35.90;64.00;;;;;;5086424;28;20372;-83
2022/01/10 06:30:17;;;;;;;7.30;2.22;;;35.90;63.90;;;;;;5086221;28;20368;-82
2022/01/10 06:32:44;;;;;;;7.70;2.27;;;36.20;63.00;;;;;;5085935;28;20384;-81
2022/01/10 06:35:11;;;;;;;5.50;1.92;;;36.10;62.60;;;;;;5086133;28;20435;-81
2022/01/10 06:37:38;;;;;;;7.43;2.40;;;35.70;62.60;;;;;;5084294;28;20440;-82
2022/01/10 06:40:08;;;;;;;8.80;2.40;;;35.00;64.60;;;;;;5084915;28;20503;-82
2022/01/10 06:42:35;;;;;;;7.97;2.40;;;34.90;66.60;;;;;;5086216;28;20364;-82
2022/01/10 06:45:03;;;;;;;8.27;2.45;;;35.30;65.00;;;;;;5086031;28;20383;-84
2022/01/10 06:47:30;;;;;;;8.32;2.17;;;34.90;64.30;;;;;;5085965;28;20372;-83
2022/01/10 06:49:56;;;;;;;7.28;2.30;;;33.80;66.20;;;;;;5085968;28;20820;-82
2022/01/10 06:52:24;;;;;;;6.28;2.00;;;32.70;69.50;;;;;;5085994;28;20430;-80
2022/01/10 06:54:51;;;;;;;7.50;2.40;;;31.90;72.30;;;;;;5089195;28;20380;-84
2022/01/10 06:57:18;;;;;;;8.03;2.30;;;31.30;74.70;;;;;;5088794;28;20386;-84
2022/01/10 06:59:45;;;;;;;8.70;2.20;;;30.90;76.50;;;;;;5089590;28;20406;-79
2022/01/10 07:02:12;;;;;;;8.10;2.50;;;30.80;78.80;;;;;;5091547;28;20390;-81
2022/01/10 07:04:39;;;;;;;7.85;2.40;;;30.90;80.10;;;;;;5089895;28;20840;-85
2022/01/10 07:07:06;;;;;;;8.10;2.20;;;31.70;77.80;;;;;;5088480;28;20734;-82
2022/01/10 07:09:33;;;;;;;10.87;2.73;;;32.50;74.40;;;;;;5089440;28;20784;-86
2022/01/10 07:12:01;;;;;;;8.23;2.50;;;32.80;72.70;;;;;;5089488;28;20452;-80
2022/01/10 07:14:29;;;;;;;8.32;2.58;;;32.50;72.60;;;;;;5089650;28;20928;-79
2022/01/10 07:16:56;;;;;;;8.60;2.20;;;32.00;74.50;;;;;;5089282;28;20399;-84
2022/01/10 07:19:24;;;;;;;8.30;2.30;;;31.40;76.60;;;;;;5089479;28;20384;-83
2022/01/10 07:21:51;;;;;;;9.02;2.60;;;30.90;78.80;;;;;;5088429;28;20388;-83
2022/01/10 07:24:18;;;;;;;9.00;2.38;;;30.50;80.80;;;;;;5089168;28;20418;-83
2022/01/10 07:26:45;;;;;;;9.98;2.55;;;30.30;81.60;;;;;;5089269;28;20510;-84
2022/01/10 07:29:12;;;;;;;9.32;2.55;;;29.90;83.70;;;;;;5088485;28;20380;-83
2022/01/10 07:31:40;;;;;;;9.95;2.60;;;29.70;85.00;;;;;;5087439;28;20388;-81
2022/01/10 07:34:11;;;;;;;9.88;2.65;;;29.50;86.70;;;;;;5083697;28;20403;-79
2022/01/10 07:36:38;;;;;;;12.98;2.60;;;29.40;87.70;;;;;;5084364;28;20910;-84
2022/01/10 07:39:06;;;;;;;11.53;2.73;;;29.40;88.40;;;;;;5086263;28;20445;-80
2022/01/10 07:41:33;;;;;;;8.32;2.75;;;29.30;89.30;;;;;;5084931;28;20404;-84
2022/01/10 07:44:00;;;;;;;10.38;2.80;;;29.30;89.70;;;;;;5084121;28;20471;-79
2022/01/10 07:46:28;;;;;;;12.13;2.63;;;29.20;90.40;;;;;;5084742;28;20930;-82
2022/01/10 07:48:55;;;;;;;9.37;2.40;;;29.00;90.60;;;;;;5084116;28;20870;-82
2022/01/10 07:51:23;;;;;;;9.88;2.70;;;28.90;91.30;;;;;;5083087;28;20384;-84
2022/01/10 07:53:50;;;;;;;10.48;2.60;;;28.70;91.40;;;;;;5083580;28;20801;-82
2022/01/10 07:56:18;;;;;;;8.70;2.47;;;28.60;92.00;;;;;;5083764;28;20386;-80
2022/01/10 07:58:50;;;;;;;9.57;2.35;;;28.50;92.10;;;;;;5084374;28;20396;-79
2022/01/10 08:01:19;;;;;;;10.93;2.80;;;28.30;92.60;;;;;;5084572;28;20443;-79
2022/01/10 08:03:49;;;;;;;11.35;2.85;;;28.20;93.20;;;;;;5083921;28;20471;-84
2022/01/10 08:06:19;;;;;;;9.77;2.33;;;28.10;93.90;;;;;;5085361;28;20391;-81
2022/01/10 08:08:46;;;;;;;11.65;2.90;;;28.00;94.20;;;;;;5083635;28;20391;-79
2022/01/10 08:11:14;;;;;;;11.00;2.50;;;27.90;94.40;;;;;;5084299;28;20384;-85
2022/01/10 08:13:44;;;;;;;10.82;2.75;;;27.90;94.60;;;;;;5083521;28;20503;-80
2022/01/10 08:16:11;;;;;;;10.43;2.53;;;27.90;94.60;;;;;;5084708;28;20442;-84
2022/01/10 08:18:38;;;;;;;11.63;2.80;;;27.80;94.90;;;;;;5087799;28;20388;-83
2022/01/10 08:21:06;;;;;;;10.93;2.72;;;27.80;95.50;;;;;;5088074;28;20820;-82
2022/01/10 08:23:34;;;;;;;13.95;2.60;;;27.70;95.80;;;;;;5085480;28;20864;-89
2022/01/10 08:26:07;;;;;;;11.80;2.85;;;27.50;96.30;;;;;;5087307;28;20411;-81
2022/01/10 08:28:35;;;;;;;11.07;3.00;;;27.40;96.90;;;;;;5086108;28;20386;-88
2022/01/10 08:31:02;;;;;;;10.90;2.50;;;27.40;97.40;;;;;;5088499;28;20464;-83
2022/01/10 08:33:30;;;;;;;10.43;2.65;;;27.40;97.70;;;;;;5087635;28;20446;-83
2022/01/10 08:35:58;;;;;;;10.67;2.70;;;27.30;98.20;;;;;;5081355;28;20380;-83
2022/01/10 08:38:25;;;;;;;12.80;3.05;;;27.20;98.40;;;;;;5086328;28;20887;-86
2022/01/10 08:40:52;;;;;;;14.43;2.95;;;27.20;99.00;;;;;;5087351;28;20410;-85
2022/01/10 08:43:19;;;;;;;12.63;3.00;;;27.20;99.40;;;;;;5088039;28;20823;-87
2022/01/10 08:45:47;;;;;;;10.00;2.80;;;27.00;99.90;;;;;;5087642;28;20399;-83
2022/01/10 08:48:13;;;;;;;10.10;2.90;;;27.00;99.90;;;;;;5086971;28;20388;-86
2022/01/10 08:50:41;;;;;;;12.45;2.90;;;26.90;99.90;;;;;;5087437;28;20377;-82
2022/01/10 08:53:09;;;;;;;9.93;2.80;;;26.90;99.90;;;;;;5086663;28;20417;-85
2022/01/10 08:55:36;;;;;;;11.65;3.15;;;26.90;99.90;;;;;;5088405;28;20380;-84
2022/01/10 08:58:03;;;;;;;14.15;2.70;;;26.90;99.90;;;;;;5086198;28;20438;-86
2022/01/10 09:00:31;;;;;;;11.75;2.78;;;26.80;99.90;;;;;;5087399;28;20408;-84
2022/01/10 09:02:58;;;;;;;11.48;2.60;;;26.70;99.90;;;;;;5086558;28;20388;-84
2022/01/10 09:05:25;;;;;;;12.95;3.20;;;26.60;99.90;;;;;;5085471;28;20391;-85
2022/01/10 09:07:52;;;;;;;13.57;2.90;;;26.50;99.90;;;;;;5087103;28;20419;-86
2022/01/10 09:10:19;;;;;;;15.32;3.33;;;26.40;99.90;;;;;;5087568;28;20396;-85
2022/01/10 09:12:46;;;;;;;11.52;2.70;;;26.40;99.90;;;;;;5090776;28;20384;-86
2022/01/10 09:15:14;;;;;;;13.43;2.90;;;26.30;99.90;;;;;;5086894;28;20839;-84
2022/01/10 09:17:43;;;;;;;14.05;3.42;;;26.30;99.90;;;;;;5085829;28;20380;-85
2022/01/10 09:20:11;;;;;;;13.32;3.10;;;26.20;99.90;;;;;;5086332;28;20403;-85
2022/01/10 09:22:39;;;;;;;12.68;3.38;;;26.20;99.90;;;;;;5087348;28;21357;-81
2022/01/10 09:25:07;;;;;;;12.55;3.17;;;26.20;99.90;;;;;;5086697;28;20388;-85
2022/01/10 09:27:34;;;;;;;16.02;3.30;;;26.10;99.90;;;;;;5087040;28;20384;-83
2022/01/10 09:30:02;;;;;;;12.80;2.92;;;26.10;99.90;;;;;;5086811;28;20434;-82
2022/01/10 09:32:30;;;;;;;12.93;3.15;;;26.10;99.90;;;;;;5086840;28;20454;-85
2022/01/10 09:34:57;;;;;;;15.40;3.13;;;26.00;99.90;;;;;;5086200;28;20417;-84
2022/01/10 09:37:25;;;;;;;14.57;3.00;;;26.00;99.90;;;;;;5085860;28;20407;-86
2022/01/10 09:39:52;;;;;;;14.83;3.07;;;26.10;99.90;;;;;;5086011;28;20738;-86
2022/01/10 09:42:19;;;;;;;14.83;3.10;;;26.00;99.90;;;;;;5086617;28;20399;-82
2022/01/10 09:44:46;;;;;;;14.20;2.90;;;25.90;99.90;;;;;;5085100;28;20429;-86
2022/01/10 09:47:13;;;;;;;11.75;2.78;;;25.90;99.90;;;;;;5086605;28;20408;-85
2022/01/10 09:49:40;;;;;;;12.23;2.70;;;25.80;99.90;;;;;;5086200;28;20827;-87
2022/01/10 09:52:08;;;;;;;12.70;2.93;;;25.70;99.90;;;;;;5086446;28;20384;-87
2022/01/10 09:54:35;;;;;;;12.02;2.83;;;25.60;99.90;;;;;;5086413;28;20383;-85
2022/01/10 09:57:03;;;;;;;14.90;2.95;;;25.60;99.90;;;;;;5086758;28;20610;-85
2022/01/10 09:59:30;;;;;;;16.08;3.08;;;25.50;99.90;;;;;;5086239;28;20392;-86
2022/01/10 10:01:57;;;;;;;11.82;3.40;;;25.50;99.90;;;;;;5086445;28;20806;-80
2022/01/10 10:04:24;;;;;;;14.02;3.10;;;25.40;99.90;;;;;;5085841;28;20381;-86
2022/01/10 10:06:53;;;;;;;16.08;3.38;;;25.40;99.90;;;;;;5086470;28;20419;-84
2022/01/10 10:09:21;;;;;;;13.30;3.30;;;25.40;99.90;;;;;;5086522;28;20400;-85
2022/01/10 10:11:52;;;;;;;11.85;3.08;;;25.30;99.90;;;;;;5086151;28;20372;-86
2022/01/10 10:14:22;;;;;;;12.35;2.95;;;25.30;99.90;;;;;;5086427;28;20905;-85
2022/01/10 10:16:52;;;;;;;14.75;3.33;;;25.20;99.90;;;;;;5086581;28;20908;-83
2022/01/10 10:19:22;;;;;;;13.68;3.00;;;25.20;99.90;;;;;;5085879;28;20412;-80
2022/01/10 10:21:50;;;;;;;13.23;3.17;;;25.00;99.90;;;;;;5085145;28;20400;-85
2022/01/10 10:24:18;;;;;;;15.88;3.50;;;25.00;99.90;;;;;;5086029;28;20384;-81
2022/01/10 10:26:46;;;;;;;12.93;3.10;;;24.80;99.90;;;;;;5081862;28;20392;-84
2022/01/10 10:29:17;;;;;;;13.15;3.22;;;24.80;99.90;;;;;;5085595;28;20432;-79
2022/01/10 10:31:50;;;;;;;14.27;3.40;;;24.70;99.90;;;;;;5090105;28;20368;-85
2022/01/10 10:34:29;;;;;;;12.38;3.03;;;24.70;99.90;;;;;;5089959;28;20384;-86
2022/01/10 10:37:15;;;;;;;12.70;3.30;;;24.60;99.90;;;;;;5089346;28;20396;-83
2022/01/10 10:39:44;;;;;;;10.70;2.87;;;24.60;99.90;;;;;;5088891;28;20737;-83
2022/01/10 10:42:16;;;;;;;12.43;3.10;;;24.70;99.90;;;;;;5086380;28;20394;-86
2022/01/10 10:44:44;;;;;;;12.90;2.90;;;24.70;99.90;;;;;;5090203;28;20421;-85
2022/01/10 10:47:17;;;;;;;15.00;3.20;;;24.70;99.90;;;;;;5089310;28;20887;-85
2022/01/10 10:49:47;;;;;;;13.63;3.42;;;24.60;99.90;;;;;;5090385;28;20376;-85
2022/01/10 10:52:14;;;;;;;12.40;3.25;;;24.60;99.90;;;;;;5088892;28;20438;-86
2022/01/10 10:54:42;;;;;;;14.90;3.50;;;24.60;99.90;;;;;;5089640;28;20406;-86
2022/01/10 10:57:11;;;;;;;17.52;3.30;;;24.70;99.90;;;;;;5089997;28;20480;-83
2022/01/10 10:59:43;;;;;;;15.30;3.30;;;24.70;99.90;;;;;;5088917;28;20444;-84
2022/01/10 11:02:11;;;;;;;14.30;3.28;;;24.70;99.90;;;;;;5089009;28;20384;-86
2022/01/10 11:04:38;;;;;;;16.38;3.40;;;24.70;99.90;;;;;;5089585;28;20860;-80
2022/01/10 11:07:06;;;;;;;14.52;3.45;;;24.70;99.90;;;;;;5088860;28;20744;-85
2022/01/10 11:09:33;;;;;;;15.73;3.40;;;24.70;99.90;;;;;;5089484;28;20774;-86
2022/01/10 11:12:00;;;;;;;15.02;3.53;;;24.70;99.90;;;;;;5088248;28;20480;-87
2022/01/10 11:14:28;;;;;;;17.20;3.67;;;24.60;99.90;;;;;;5089606;28;20384;-85
2022/01/10 11:16:55;;;;;;;13.82;3.05;;;24.50;99.90;;;;;;5088613;28;20380;-87
2022/01/10 11:19:27;;;;;;;16.88;3.58;;;24.50;99.90;;;;;;5088615;28;20383;-86
2022/01/10 11:22:06;;;;;;;13.75;3.30;;;24.50;99.90;;;;;;5089426;28;20396;-85
2022/01/10 11:24:55;;;;;;;14.52;3.60;;;24.50;99.90;;;;;;5088257;28;20460;-85
2022/01/10 11:27:29;;;;;;;14.75;3.35;;;24.50;99.90;;;;;;5088978;28;20463;-83
2022/01/10 11:29:57;;;;;;;12.43;3.42;;;24.50;99.90;;;;;;5088080;28;20752;-84
2022/01/10 11:33:03;;;;;;;14.35;3.50;;;24.40;99.90;;;;;;5087688;28;20393;-86
2022/01/10 11:35:40;;;;;;;18.17;3.58;;;24.30;99.90;;;;;;5073497;28;20396;-85
2022/01/10 11:38:45;;;;;;;15.70;3.95;;;24.40;99.90;;;;;;5076332;28;20400;-86
2022/01/10 11:41:33;;;;;;;16.48;3.80;;;24.30;99.90;;;;;;5062038;28;20416;-84
2022/01/10 11:44:11;;;;;;;14.23;3.40;;;24.30;99.90;;;;;;5071917;28;20409;-84
2022/01/10 11:46:58;;;;;;;14.10;3.50;;;24.20;99.90;;;;;;5075512;28;20445;-83
2022/01/10 11:49:25;;;;;;;13.73;3.85;;;24.10;99.90;;;;;;5071355;28;20469;-80
2022/01/10 11:51:52;;;;;;;13.38;3.58;;;24.00;99.90;;;;;;5071278;28;20412;-79
2022/01/10 11:54:28;;;;;;;15.97;3.67;;;23.90;99.90;;;;;;5068645;28;20723;-80
2022/01/10 11:57:15;;;;;;;17.75;4.07;;;23.90;99.90;;;;;;5075392;28;20391;-81
2022/01/10 11:59:45;;;;;;;15.95;3.42;;;23.90;99.90;;;;;;5088119;28;20555;-83
2022/01/10 12:02:24;;;;;;;12.85;3.53;;;23.80;99.90;;;;;;5077566;28;20394;-85
2022/01/10 12:04:57;;;;;;;13.80;3.50;;;23.80;99.90;;;;;;5068194;28;20386;-84
2022/01/10 12:07:24;;;;;;;17.42;3.90;;;23.80;99.90;;;;;;5067836;28;20409;-83
2022/01/10 12:09:53;;;;;;;16.08;3.67;;;23.70;99.90;;;;;;5057373;28;20401;-83
2022/01/10 12:12:24;;;;;;;14.88;3.70;;;23.70;99.90;;;;;;5064474;28;20380;-80
2022/01/10 12:14:56;;;;;;;14.00;3.80;;;23.70;99.90;;;;;;5074756;28;20392;-85
2022/01/10 12:17:23;;;;;;;15.63;3.90;;;23.70;99.90;;;;;;5050132;28;20939;-79
2022/01/10 12:19:50;;;;;;;15.65;3.85;;;23.70;99.90;;;;;;5053396;28;20414;-82
2022/01/10 12:22:19;;;;;;;15.93;4.10;;;23.60;99.90;;;;;;5067320;28;20386;-80
2022/01/10 12:24:46;;;;;;;19.52;4.07;;;23.60;99.90;;;;;;5042090;28;20399;-84
2022/01/10 12:27:13;;;;;;;17.80;3.90;;;23.60;99.90;;;;;;5080029;28;20923;-86
2022/01/10 12:29:41;;;;;;;14.93;4.13;;;23.60;99.90;;;;;;5082237;28;20394;-85
2022/01/10 12:32:11;;;;;;;17.55;4.22;;;23.60;99.90;;;;;;5064636;28;20409;-86
2022/01/10 12:34:41;;;;;;;14.80;3.90;;;23.60;99.90;;;;;;5052284;28;20387;-86
2022/01/10 12:37:08;;;;;;;15.63;4.05;;;23.50;99.90;;;;;;5051633;28;20858;-80
2022/01/10 12:39:40;;;;;;;17.77;3.97;;;23.50;99.90;;;;;;5087651;28;20907;-85
2022/01/10 12:42:08;;;;;;;16.35;4.47;;;23.50;99.90;;;;;;5087400;28;20368;-84
2022/01/10 12:44:35;;;;;;;15.90;4.05;;;23.40;99.90;;;;;;5087500;28;20767;-80
2022/01/10 12:47:02;;;;;;;20.63;4.53;;;23.40;99.90;;;;;;5087379;28;20383;-86
2022/01/10 12:49:29;;;;;;;17.83;4.53;;;23.40;99.90;;;;;;5087225;28;20395;-86
2022/01/10 12:51:59;;;;;;;17.88;5.00;;;23.30;99.90;;;;;;5086827;28;20384;-85
2022/01/10 12:54:28;;;;;;;18.57;4.97;;;23.30;99.90;;;;;;5087245;28;20475;-85
2022/01/10 12:56:56;;;;;;;16.03;4.90;;;23.20;99.90;;;;;;5087751;28;20392;-86
2022/01/10 12:59:26;;;;;;;16.63;4.65;;;23.10;99.90;;;;;;5087230;28;20385;-84